createdAt,value
2023-04-06T00:01:53.362Z,-0.10
2023-04-06T00:04:21.306Z,-0.06
2023-04-06T00:06:48.605Z,-0.31
2023-04-06T00:09:15.942Z,-0.26
2023-04-06T00:11:43.563Z,-0.36
2023-04-06T00:14:11.037Z,-0.36
2023-04-06T00:16:38.400Z,-0.19
2023-04-06T00:19:06.235Z,-0.27
2023-04-06T00:21:33.983Z,-0.40
2023-04-06T00:24:01.333Z,-0.18
2023-04-06T00:26:30.164Z,-0.44
2023-04-06T00:28:59.898Z,-0.43
2023-04-06T00:31:27.229Z,-0.53
2023-04-06T00:33:54.984Z,-0.47
2023-04-06T00:36:22.440Z,-0.57
2023-04-06T00:38:49.859Z,-0.53
2023-04-06T00:41:18.900Z,-0.58
2023-04-06T00:43:46.174Z,-0.42
2023-04-06T00:46:13.576Z,-0.50
2023-04-06T00:48:42.115Z,-0.69
2023-04-06T00:51:09.491Z,-0.65
2023-04-06T00:53:36.930Z,-0.58
2023-04-06T00:56:05.693Z,-0.55
2023-04-06T00:58:34.521Z,-0.78
2023-04-06T01:01:02.364Z,-0.78
2023-04-06T01:03:30.119Z,-0.72
2023-04-06T01:05:59.434Z,-0.82
2023-04-06T01:08:28.229Z,-0.60
2023-04-06T01:10:56.309Z,-0.97
2023-04-06T01:13:23.856Z,-0.89
2023-04-06T01:15:51.928Z,-0.91
2023-04-06T01:18:27.413Z,-0.86
2023-04-06T01:20:56.285Z,-0.76
2023-04-06T01:23:26.039Z,-0.82
2023-04-06T01:25:53.425Z,-0.91
2023-04-06T01:28:20.755Z,-0.87
2023-04-06T01:30:49.372Z,-0.71
2023-04-06T01:33:16.975Z,-0.91
2023-04-06T01:35:44.855Z,-1.06
2023-04-06T01:38:13.512Z,-0.81
2023-04-06T01:40:41.209Z,-0.85
2023-04-06T01:43:08.585Z,-1.01
2023-04-06T01:45:36.813Z,-0.92
2023-04-06T01:48:04.872Z,-1.12
2023-04-06T01:50:32.572Z,-0.99
2023-04-06T01:53:00.332Z,-0.94
2023-04-06T01:55:28.233Z,-0.94
2023-04-06T01:57:56.459Z,-0.87
2023-04-06T02:00:27.339Z,-0.76
2023-04-06T02:02:56.015Z,-0.63
2023-04-06T02:05:23.708Z,-0.68
2023-04-06T02:07:52.674Z,-0.73
2023-04-06T02:10:22.004Z,-0.60
2023-04-06T02:12:49.807Z,-0.77
2023-04-06T02:15:18.487Z,-0.67
2023-04-06T02:17:46.166Z,-0.67
2023-04-06T02:20:13.726Z,-0.76
2023-04-06T02:22:41.517Z,-0.88
2023-04-06T02:25:09.828Z,-0.85
2023-04-06T02:27:37.461Z,-0.93
2023-04-06T02:30:06.551Z,-1.03
2023-04-06T02:32:34.057Z,-0.86
2023-04-06T02:35:02.030Z,-0.85
2023-04-06T02:37:30.589Z,-1.02
2023-04-06T02:39:59.618Z,-1.01
2023-04-06T02:42:27.897Z,-1.10
2023-04-06T02:44:55.806Z,-1.09
2023-04-06T02:47:24.398Z,-0.88
2023-04-06T02:49:52.092Z,-1.07
2023-04-06T02:52:20.362Z,-1.11
2023-04-06T02:54:47.954Z,-1.15
2023-04-06T02:57:20.074Z,-1.10
2023-04-06T02:59:47.990Z,-1.23
2023-04-06T03:02:15.811Z,-1.19
2023-04-06T03:04:44.264Z,-1.17
2023-04-06T03:07:15.155Z,-1.11
2023-04-06T03:09:42.657Z,-1.30
2023-04-06T03:12:10.434Z,-1.07
2023-04-06T03:14:39.675Z,-0.99
2023-04-06T03:17:07.107Z,-1.05
2023-04-06T03:19:34.717Z,-1.03
2023-04-06T03:22:02.775Z,-0.97
2023-04-06T03:24:30.346Z,-0.92
2023-04-06T03:26:57.832Z,-0.89
2023-04-06T03:29:25.813Z,-1.00
2023-04-06T03:31:53.516Z,-1.11
2023-04-06T03:34:22.198Z,-0.94
2023-04-06T03:36:59.831Z,-0.89
2023-04-06T03:39:37.410Z,-0.99
2023-04-06T03:42:05.525Z,-0.99
2023-04-06T03:44:33.144Z,-0.76
2023-04-06T03:47:00.699Z,-0.67
2023-04-06T03:49:28.957Z,-0.74
2023-04-06T03:51:57.786Z,-0.87
2023-04-06T03:54:25.202Z,-0.47
2023-04-06T03:56:52.923Z,-0.66
2023-04-06T03:59:20.744Z,-0.41
2023-04-06T04:01:48.214Z,-0.49
2023-04-06T04:04:16.064Z,-0.46
2023-04-06T04:06:43.464Z,-0.54
2023-04-06T04:09:11.179Z,-0.47
2023-04-06T04:11:39.088Z,-0.30
2023-04-06T04:14:06.479Z,-0.24
2023-04-06T04:16:33.954Z,-0.14
2023-04-06T04:19:01.674Z,-0.04
2023-04-06T04:21:32.599Z,-0.06
2023-04-06T04:24:01.547Z,-0.21
2023-04-06T04:26:29.396Z,-0.32
2023-04-06T04:28:56.867Z,-0.27
2023-04-06T04:31:24.568Z,-0.56
2023-04-06T04:33:53.610Z,-0.33
2023-04-06T04:36:25.598Z,-0.28
2023-04-06T04:38:54.035Z,-0.42
2023-04-06T04:41:21.839Z,-0.44
2023-04-06T04:43:50.405Z,-0.36
2023-04-06T04:46:21.288Z,-0.37
2023-04-06T04:48:48.858Z,-0.40
2023-04-06T04:51:16.802Z,-0.39
2023-04-06T04:53:45.923Z,-0.27
2023-04-06T04:56:15.247Z,-0.29
2023-04-06T04:58:44.617Z,-0.21
2023-04-06T05:01:12.865Z,-0.09
2023-04-06T05:03:40.878Z,-0.08
2023-04-06T05:06:09.686Z,-0.19
2023-04-06T05:08:39.790Z,-0.17
2023-04-06T05:11:07.576Z,-0.12
2023-04-06T05:13:35.805Z,0.32
2023-04-06T05:16:06.931Z,0.25
2023-04-06T05:18:34.911Z,0.22
2023-04-06T05:21:02.785Z,0.35
2023-04-06T05:23:31.755Z,0.18
2023-04-06T05:26:01.824Z,0.27
2023-04-06T05:28:29.353Z,0.31
2023-04-06T05:30:58.130Z,0.35
2023-04-06T05:33:27.438Z,0.42
2023-04-06T05:35:55.648Z,0.58
2023-04-06T05:38:23.810Z,0.59
2023-04-06T05:40:52.236Z,0.52
2023-04-06T05:43:23.057Z,0.70
2023-04-06T05:45:52.987Z,0.82
2023-04-06T05:48:21.285Z,0.68
2023-04-06T05:50:51.540Z,0.75
2023-04-06T05:53:22.292Z,0.86
2023-04-06T05:55:51.042Z,1.03
2023-04-06T05:58:18.571Z,1.04
2023-04-06T06:00:47.220Z,0.99
2023-04-06T06:03:16.532Z,1.15
2023-04-06T06:05:46.831Z,1.06
2023-04-06T06:08:14.984Z,1.28
2023-04-06T06:10:42.490Z,1.45
2023-04-06T06:13:11.341Z,1.60
2023-04-06T06:15:39.321Z,1.54
2023-04-06T06:18:07.031Z,2.08
2023-04-06T06:20:34.550Z,2.27
2023-04-06T06:23:02.485Z,2.48
2023-04-06T06:25:32.104Z,2.50
2023-04-06T06:28:00.263Z,2.62
2023-04-06T06:30:29.871Z,2.54
2023-04-06T06:32:57.490Z,2.53
2023-04-06T06:35:25.337Z,2.78
2023-04-06T06:37:53.178Z,2.56
2023-04-06T06:40:25.123Z,2.45
2023-04-06T06:42:53.782Z,2.48
2023-04-06T06:45:21.854Z,2.65
2023-04-06T06:47:49.338Z,2.50
2023-04-06T06:50:17.163Z,2.49
2023-04-06T06:52:45.971Z,2.23
2023-04-06T06:55:13.425Z,2.47
2023-04-06T06:57:43.565Z,2.54
2023-04-06T07:00:13.539Z,2.57
2023-04-06T07:02:42.260Z,2.73
2023-04-06T07:05:19.917Z,2.84
2023-04-06T07:07:55.965Z,2.71
2023-04-06T07:10:23.854Z,2.89
2023-04-06T07:12:51.305Z,2.88
2023-04-06T07:15:19.055Z,3.14
2023-04-06T07:17:46.802Z,3.11
2023-04-06T07:20:14.850Z,3.13
2023-04-06T07:22:44.660Z,3.15
2023-04-06T07:25:11.977Z,3.27
2023-04-06T07:27:41.885Z,3.10
2023-04-06T07:30:10.533Z,2.96
2023-04-06T07:32:38.234Z,3.40
2023-04-06T07:35:06.221Z,3.50
2023-04-06T07:37:34.296Z,3.55
2023-04-06T07:40:01.784Z,3.47
2023-04-06T07:42:30.813Z,3.66
2023-04-06T07:44:58.706Z,4.00
2023-04-06T07:47:26.372Z,4.18
2023-04-06T07:49:57.171Z,4.13
2023-04-06T07:52:25.058Z,4.19
2023-04-06T07:54:52.417Z,3.93
2023-04-06T07:57:19.947Z,4.33
2023-04-06T07:59:47.648Z,4.52
2023-04-06T08:02:15.150Z,4.73
2023-04-06T08:04:44.633Z,4.55
2023-04-06T08:07:13.672Z,4.30
2023-04-06T08:09:41.105Z,4.32
2023-04-06T08:12:08.948Z,4.71
2023-04-06T08:14:36.522Z,5.02
2023-04-06T08:17:05.917Z,4.73
2023-04-06T08:19:34.300Z,4.71
2023-04-06T08:22:01.685Z,5.08
2023-04-06T08:24:29.124Z,5.00
2023-04-06T08:26:56.931Z,4.58
2023-04-06T08:29:24.406Z,4.24
2023-04-06T08:31:51.683Z,4.55
2023-04-06T08:34:19.502Z,4.27
2023-04-06T08:36:47.982Z,5.09
2023-04-06T08:39:15.554Z,5.10
2023-04-06T08:41:45.167Z,4.51
2023-04-06T08:44:13.162Z,4.71
2023-04-06T08:46:41.779Z,5.02
2023-04-06T08:49:09.676Z,5.40
2023-04-06T08:51:39.290Z,5.36
2023-04-06T08:54:07.044Z,5.73
2023-04-06T08:56:39.205Z,5.67
2023-04-06T08:59:07.755Z,5.96
2023-04-06T09:01:42.426Z,5.78
2023-04-06T09:04:12.793Z,5.88
2023-04-06T09:06:41.956Z,6.25
2023-04-06T09:09:09.733Z,6.05
2023-04-06T09:12:07.067Z,5.47
2023-04-06T09:14:39.164Z,5.37
2023-04-06T09:17:07.454Z,5.47
2023-04-06T09:19:35.158Z,5.26
2023-04-06T09:22:08.462Z,5.25
2023-04-06T09:24:50.887Z,5.20
2023-04-06T09:27:18.879Z,5.94
2023-04-06T09:29:46.598Z,5.88
2023-04-06T09:32:17.999Z,5.79
2023-04-06T09:34:50.795Z,5.77
2023-04-06T09:37:20.255Z,5.94
2023-04-06T09:39:47.903Z,5.69
2023-04-06T09:42:26.779Z,5.45
2023-04-06T09:44:54.360Z,5.28
2023-04-06T09:47:29.597Z,5.44
2023-04-06T09:50:00.386Z,5.13
2023-04-06T09:52:32.886Z,5.23
2023-04-06T09:55:06.244Z,5.33
2023-04-06T09:58:06.751Z,5.31
2023-04-06T10:00:44.836Z,5.22
2023-04-06T10:03:38.772Z,5.03
2023-04-06T10:06:12.466Z,4.93
2023-04-06T10:08:42.612Z,5.14
2023-04-06T10:11:13.728Z,5.20
2023-04-06T10:13:41.791Z,5.30
2023-04-06T10:16:09.525Z,5.19
2023-04-06T10:18:38.710Z,5.12
2023-04-06T10:21:22.012Z,4.93
2023-04-06T10:23:52.175Z,5.10
2023-04-06T10:26:23.663Z,5.12
2023-04-06T10:28:51.955Z,5.20
2023-04-06T10:31:27.676Z,5.00
2023-04-06T10:34:01.913Z,4.86
2023-04-06T10:36:33.669Z,4.96
2023-04-06T10:39:06.253Z,4.96
2023-04-06T10:41:43.240Z,5.20
2023-04-06T10:44:21.632Z,5.08
2023-04-06T10:47:02.903Z,5.15
2023-04-06T10:49:30.256Z,5.38
2023-04-06T10:51:58.439Z,5.44
2023-04-06T10:54:28.187Z,5.64
2023-04-06T10:56:57.263Z,5.75
2023-04-06T10:59:26.597Z,5.88
2023-04-06T11:01:56.196Z,5.84
2023-04-06T11:04:24.756Z,5.71
2023-04-06T11:06:52.710Z,6.07
2023-04-06T11:09:32.679Z,5.76
2023-04-06T11:12:00.484Z,5.63
2023-04-06T11:14:28.036Z,5.32
2023-04-06T11:16:55.448Z,5.35
2023-04-06T11:19:23.241Z,5.26
2023-04-06T11:21:50.874Z,5.51
2023-04-06T11:24:20.573Z,5.40
2023-04-06T11:26:52.232Z,5.51
2023-04-06T11:29:24.637Z,5.54
2023-04-06T11:31:53.402Z,5.40
2023-04-06T11:34:22.912Z,5.18
2023-04-06T11:36:58.524Z,5.15
2023-04-06T11:39:28.809Z,5.09
2023-04-06T11:42:08.508Z,5.24
2023-04-06T11:44:43.820Z,5.42
2023-04-06T11:47:12.092Z,5.48
2023-04-06T11:49:42.112Z,5.52
2023-04-06T11:52:24.342Z,5.75
2023-04-06T11:54:54.597Z,5.85
2023-04-06T11:57:26.688Z,5.71
2023-04-06T11:59:54.771Z,5.87
2023-04-06T12:02:22.327Z,5.81
2023-04-06T12:04:50.277Z,5.92
2023-04-06T12:07:17.819Z,5.73
2023-04-06T12:09:45.559Z,5.75
2023-04-06T12:12:13.320Z,5.77
2023-04-06T12:14:41.087Z,5.81
2023-04-06T12:17:08.628Z,5.36
2023-04-06T12:19:36.288Z,5.31
2023-04-06T12:22:03.680Z,5.10
2023-04-06T12:24:31.208Z,5.09
2023-04-06T12:27:08.680Z,5.16
2023-04-06T12:29:38.006Z,5.27
2023-04-06T12:32:06.672Z,5.39
2023-04-06T12:34:34.085Z,5.55
2023-04-06T12:37:01.689Z,6.05
2023-04-06T12:39:29.541Z,5.78
2023-04-06T12:41:58.396Z,5.75
2023-04-06T12:44:27.005Z,6.37
2023-04-06T12:46:55.221Z,6.97
2023-04-06T12:49:23.086Z,7.26
2023-04-06T12:51:51.368Z,6.94
2023-04-06T12:54:19.044Z,6.66
2023-04-06T12:56:46.694Z,6.55
2023-04-06T12:59:14.163Z,6.48
2023-04-06T13:01:41.886Z,6.71
2023-04-06T13:04:09.173Z,6.77
2023-04-06T13:06:36.567Z,6.60
2023-04-06T13:09:05.494Z,6.53
2023-04-06T13:11:33.129Z,6.52
2023-04-06T13:14:00.536Z,6.56
2023-04-06T13:16:28.666Z,6.65
2023-04-06T13:18:56.335Z,6.65
2023-04-06T13:21:23.663Z,6.48
2023-04-06T13:23:52.543Z,6.41
2023-04-06T13:26:19.880Z,6.29
2023-04-06T13:28:47.382Z,6.16
2023-04-06T13:31:15.026Z,6.47
2023-04-06T13:33:42.457Z,6.56
2023-04-06T13:36:09.913Z,6.77
2023-04-06T13:38:40.075Z,6.84
2023-04-06T13:41:07.587Z,6.98
2023-04-06T13:43:34.924Z,6.63
2023-04-06T13:46:02.715Z,6.85
2023-04-06T13:48:30.117Z,7.30
2023-04-06T13:50:57.786Z,7.58
2023-04-06T13:53:25.498Z,7.82
2023-04-06T13:55:56.768Z,8.34
2023-04-06T13:58:24.710Z,8.36
2023-04-06T14:00:52.563Z,8.49
2023-04-06T14:03:21.532Z,8.35
2023-04-06T14:05:49.003Z,8.43
2023-04-06T14:08:16.580Z,8.59
2023-04-06T14:10:44.337Z,8.89
2023-04-06T14:13:11.708Z,8.23
2023-04-06T14:15:39.235Z,8.11
2023-04-06T14:18:07.188Z,7.88
2023-04-06T14:20:34.723Z,7.88
2023-04-06T14:23:03.160Z,8.34
2023-04-06T14:25:35.955Z,8.64
2023-04-06T14:28:03.614Z,8.36
2023-04-06T14:30:32.266Z,8.80
2023-04-06T14:32:59.724Z,8.89
2023-04-06T14:35:29.430Z,7.97
2023-04-06T14:37:59.310Z,7.61
2023-04-06T14:40:26.756Z,7.37
2023-04-06T14:42:54.234Z,7.41
2023-04-06T14:45:22.902Z,7.03
2023-04-06T14:47:50.526Z,7.48
2023-04-06T14:50:17.925Z,8.22
2023-04-06T14:52:47.663Z,8.38
2023-04-06T14:55:15.298Z,7.86
2023-04-06T14:57:42.665Z,7.78
2023-04-06T15:00:11.346Z,8.60
2023-04-06T15:02:39.569Z,7.84
2023-04-06T15:05:07.503Z,7.86
2023-04-06T15:07:35.280Z,8.12
2023-04-06T15:10:02.904Z,7.57
2023-04-06T15:12:31.094Z,7.07
2023-04-06T15:14:58.843Z,6.84
2023-04-06T15:17:27.661Z,6.74
2023-04-06T15:19:55.565Z,6.74
2023-04-06T15:22:23.298Z,6.71
2023-04-06T15:24:50.746Z,6.07
2023-04-06T15:27:18.323Z,5.88
2023-04-06T15:29:45.953Z,5.64
2023-04-06T15:32:13.619Z,5.68
2023-04-06T15:34:41.142Z,5.50
2023-04-06T15:37:09.478Z,5.20
2023-04-06T15:39:38.025Z,5.26
2023-04-06T15:42:05.527Z,5.32
2023-04-06T15:44:33.338Z,5.11
2023-04-06T15:47:00.808Z,4.80
2023-04-06T15:49:28.281Z,4.65
2023-04-06T15:51:56.128Z,4.61
2023-04-06T15:54:23.452Z,4.46
2023-04-06T15:56:51.154Z,4.43
2023-04-06T15:59:20.053Z,4.60
2023-04-06T16:01:47.836Z,4.33
2023-04-06T16:04:15.783Z,4.34
2023-04-06T16:06:43.159Z,4.24
2023-04-06T16:09:10.482Z,4.32
2023-04-06T16:11:38.308Z,4.38
2023-04-06T16:14:05.775Z,4.26
2023-04-06T16:16:33.238Z,4.37
2023-04-06T16:19:01.148Z,4.01
2023-04-06T16:21:29.025Z,4.04
2023-04-06T16:23:59.205Z,3.97
2023-04-06T16:26:27.740Z,3.81
2023-04-06T16:28:55.315Z,3.88
2023-04-06T16:31:24.583Z,4.24
2023-04-06T16:33:54.531Z,3.97
2023-04-06T16:36:29.205Z,3.92
2023-04-06T16:38:58.043Z,3.94
2023-04-06T16:41:27.700Z,3.65
2023-04-06T16:43:57.919Z,3.41
2023-04-06T16:46:32.524Z,3.31
2023-04-06T16:49:00.684Z,3.18
2023-04-06T16:51:28.810Z,3.24
2023-04-06T16:53:56.198Z,3.21
2023-04-06T16:56:23.774Z,3.32
2023-04-06T16:58:51.844Z,3.13
2023-04-06T17:01:24.147Z,2.99
2023-04-06T17:03:54.118Z,2.90
2023-04-06T17:06:21.998Z,2.89
2023-04-06T17:08:49.993Z,3.10
2023-04-06T17:11:21.767Z,3.09
2023-04-06T17:13:51.002Z,3.21
2023-04-06T17:16:19.711Z,2.99
2023-04-06T17:18:47.134Z,2.86
2023-04-06T17:21:14.750Z,2.94
2023-04-06T17:23:42.767Z,2.80
2023-04-06T17:26:10.122Z,2.73
2023-04-06T17:28:37.474Z,2.74
2023-04-06T17:31:13.111Z,2.88
2023-04-06T17:33:41.665Z,2.82
2023-04-06T17:36:11.125Z,2.93
2023-04-06T17:38:43.557Z,2.94
2023-04-06T17:41:13.569Z,2.88
2023-04-06T17:43:41.065Z,2.82
2023-04-06T17:46:08.664Z,2.66
2023-04-06T17:48:36.565Z,2.82
2023-04-06T17:51:04.216Z,2.82
2023-04-06T17:53:34.568Z,2.71
2023-04-06T17:56:04.174Z,2.71
2023-04-06T17:58:31.770Z,2.70
2023-04-06T18:00:59.084Z,2.82
2023-04-06T18:03:27.447Z,2.97
2023-04-06T18:05:55.093Z,3.12
2023-04-06T18:08:22.678Z,3.13
2023-04-06T18:10:50.428Z,2.94
2023-04-06T18:13:17.826Z,2.83
2023-04-06T18:15:45.858Z,3.05
2023-04-06T18:18:13.652Z,3.10
2023-04-06T18:20:41.847Z,2.87
2023-04-06T18:23:09.236Z,2.76
2023-04-06T18:25:41.100Z,2.77
2023-04-06T18:28:09.596Z,2.85
2023-04-06T18:30:37.422Z,2.74
2023-04-06T18:33:06.734Z,2.72
2023-04-06T18:35:34.020Z,2.69
2023-04-06T18:38:01.688Z,2.85
2023-04-06T18:40:34.248Z,3.00
2023-04-06T18:43:03.297Z,2.80
2023-04-06T18:45:36.378Z,2.86
2023-04-06T18:48:04.578Z,2.86
2023-04-06T18:50:31.896Z,2.85
2023-04-06T18:52:59.320Z,2.78
2023-04-06T18:55:27.099Z,2.95
2023-04-06T18:57:54.554Z,2.88
2023-04-06T19:00:22.027Z,2.79
2023-04-06T19:02:49.983Z,2.72
2023-04-06T19:05:17.642Z,2.79
2023-04-06T19:07:52.524Z,2.64
2023-04-06T19:10:20.586Z,2.82
2023-04-06T19:12:48.985Z,2.84
2023-04-06T19:15:16.479Z,2.69
2023-04-06T19:17:44.244Z,2.66
2023-04-06T19:20:11.978Z,2.83
2023-04-06T19:22:39.362Z,2.79
2023-04-06T19:25:08.102Z,2.92
2023-04-06T19:27:35.557Z,2.81
2023-04-06T19:30:07.106Z,2.79
2023-04-06T19:32:34.903Z,2.79
2023-04-06T19:35:06.469Z,3.04
2023-04-06T19:37:34.651Z,3.05
2023-04-06T19:40:07.699Z,3.11
2023-04-06T19:42:35.216Z,2.92
2023-04-06T19:45:04.062Z,2.95
2023-04-06T19:47:31.681Z,2.81
2023-04-06T19:49:59.103Z,2.93
2023-04-06T19:52:27.454Z,2.78
2023-04-06T19:54:55.686Z,2.68
2023-04-06T19:57:23.221Z,2.78
2023-04-06T19:59:51.166Z,2.63
2023-04-06T20:02:19.000Z,2.61
2023-04-06T20:04:46.991Z,2.60
2023-04-06T20:07:14.410Z,2.64
2023-04-06T20:09:41.753Z,2.56
2023-04-06T20:12:09.493Z,2.42
2023-04-06T20:14:36.871Z,2.60
2023-04-06T20:17:04.601Z,2.53
2023-04-06T20:19:32.416Z,2.79
2023-04-06T20:22:03.304Z,2.58
2023-04-06T20:24:31.590Z,2.58
2023-04-06T20:26:59.677Z,2.61
2023-04-06T20:29:27.954Z,2.73
2023-04-06T20:31:55.820Z,2.71
2023-04-06T20:34:26.209Z,2.79
2023-04-06T20:36:53.939Z,2.83
2023-04-06T20:39:21.928Z,2.54
2023-04-06T20:41:50.968Z,2.63
2023-04-06T20:44:19.164Z,2.70
2023-04-06T20:46:48.575Z,2.61
2023-04-06T20:49:17.166Z,2.78
2023-04-06T20:51:45.841Z,2.58
2023-04-06T20:54:13.224Z,2.61
2023-04-06T20:56:41.044Z,2.62
2023-04-06T20:59:08.377Z,2.35
2023-04-06T21:01:35.833Z,2.40
2023-04-06T21:04:04.343Z,2.18
2023-04-06T21:06:32.629Z,2.26
2023-04-06T21:09:01.511Z,2.36
2023-04-06T21:11:29.817Z,2.59
2023-04-06T21:13:57.205Z,2.41
2023-04-06T21:16:24.576Z,2.36
2023-04-06T21:18:52.304Z,2.28
2023-04-06T21:21:20.087Z,2.43
2023-04-06T21:23:47.431Z,2.27
2023-04-06T21:26:15.085Z,2.21
2023-04-06T21:28:42.533Z,2.06
2023-04-06T21:31:10.009Z,2.19
2023-04-06T21:33:37.756Z,2.38
2023-04-06T21:36:06.889Z,2.28
2023-04-06T21:38:37.771Z,2.18
2023-04-06T21:41:07.377Z,2.21
2023-04-06T21:43:34.708Z,2.22
2023-04-06T21:46:02.328Z,2.19
2023-04-06T21:48:30.308Z,2.42
2023-04-06T21:50:57.561Z,2.13
2023-04-06T21:53:24.858Z,2.33
2023-04-06T21:55:52.810Z,2.43
2023-04-06T21:58:20.171Z,2.33
2023-04-06T22:00:47.557Z,2.43
2023-04-06T22:17:59.383Z,2.36
2023-04-06T22:20:28.032Z,2.36
2023-04-06T22:22:55.526Z,2.06
2023-04-06T22:25:23.359Z,2.09
2023-04-06T22:27:50.986Z,2.05
2023-04-06T22:30:18.326Z,2.19
2023-04-06T22:32:45.823Z,2.29
2023-04-06T22:35:13.635Z,2.22
2023-04-06T22:37:44.428Z,2.09
2023-04-06T22:40:12.233Z,2.17
2023-04-06T22:42:40.059Z,2.04
2023-04-06T22:45:07.686Z,2.15
2023-04-06T22:47:35.055Z,2.15
2023-04-06T22:50:02.913Z,2.16
2023-04-06T22:52:30.207Z,1.97
2023-04-06T22:54:57.516Z,1.91
2023-04-06T22:57:25.475Z,2.19
2023-04-06T22:59:52.943Z,1.99
2023-04-06T23:02:20.608Z,1.98
2023-04-06T23:04:48.382Z,2.13
2023-04-06T23:07:15.655Z,1.96
2023-04-06T23:09:44.380Z,1.89
2023-04-06T23:12:12.268Z,1.87
2023-04-06T23:14:39.520Z,2.02
2023-04-06T23:17:07.027Z,1.99
2023-04-06T23:19:34.839Z,1.98
2023-04-06T23:22:02.529Z,2.00
2023-04-06T23:24:29.804Z,1.93
2023-04-06T23:26:57.732Z,2.05
2023-04-06T23:29:25.209Z,2.07
2023-04-06T23:31:52.584Z,2.08
2023-04-06T23:34:20.277Z,2.17
2023-04-06T23:36:47.653Z,2.08
2023-04-06T23:39:14.994Z,1.90
2023-04-06T23:41:43.291Z,2.05
2023-04-06T23:44:10.762Z,2.09
2023-04-06T23:46:38.171Z,1.91
2023-04-06T23:49:05.886Z,1.85
2023-04-06T23:51:33.190Z,1.72
2023-04-06T23:54:00.514Z,1.62
2023-04-06T23:56:28.164Z,1.99
2023-04-06T23:58:55.566Z,1.90
